Time;durP1;ratioP1;P1;durP2;ratioP2;P2;SDS_P1;SDS_P2;PMS_P1;PMS_P2;Temp;Humidity;BMP_temperature;BMP_pressure;BME280_temperature;BME280_humidity;BME280_pressure;Samples;Min_cycle;Max_cycle;Signal;HPM_P1;HPM_P2
2024/01/06 00:00:56;;;;;;;24.10;10.65;;;;;;;5.64;100.00;98646.22;5131248;27;20110;-80
2024/01/06 00:03:22;;;;;;;18.40;9.73;;;;;;;6.07;100.00;98697.97;5124500;27;20038;-80
2024/01/06 00:05:47;;;;;;;22.08;9.73;;;;;;;6.20;100.00;98696.28;5100149;27;20488;-80
2024/01/06 00:08:13;;;;;;;19.67;10.80;;;;;;;6.01;100.00;98661.19;5118631;27;20488;-80
2024/01/06 00:10:38;;;;;;;22.35;12.13;;;;;;;6.27;99.66;98707.16;5118021;27;20027;-80
2024/01/06 00:13:03;;;;;;;25.65;12.23;;;;;;;6.15;98.95;98666.53;5134243;27;20019;-80
2024/01/06 00:15:29;;;;;;;25.40;12.40;;;;;;;5.97;98.11;98622.03;5132801;27;20088;-79
2024/01/06 00:17:54;;;;;;;21.27;11.85;;;;;;;6.12;97.06;98659.13;5129307;27;20019;-80
2024/01/06 00:20:20;;;;;;;20.08;11.55;;;;;;;6.27;97.60;98690.69;5115968;27;20511;-78
2024/01/06 00:22:45;;;;;;;19.95;10.32;;;;;;;6.08;96.93;98656.44;5121936;27;20034;-80
2024/01/06 00:25:10;;;;;;;17.77;9.80;;;;;;;6.32;96.20;98704.00;5116310;27;20100;-80
2024/01/06 00:27:36;;;;;;;27.70;15.52;;;;;;;6.22;95.79;98704.84;5121907;27;20065;-79
2024/01/06 00:30:01;;;;;;;20.77;10.77;;;;;;;6.02;96.17;98695.66;5115770;27;20027;-79
2024/01/06 00:32:27;;;;;;;13.00;7.47;;;;;;;6.12;95.85;98708.50;5120314;27;20028;-79
2024/01/06 00:34:52;;;;;;;15.20;8.15;;;;;;;6.00;96.25;98695.28;5118461;27;20091;-79
2024/01/06 00:37:17;;;;;;;15.82;8.48;;;;;;;5.81;96.57;98682.09;5125501;27;20049;-80
2024/01/06 00:39:43;;;;;;;15.00;7.85;;;;;;;5.90;96.81;98685.19;5132880;27;20019;-80
2024/01/06 00:42:08;;;;;;;15.85;7.95;;;;;;;5.85;97.76;98713.00;5132413;27;20061;-79
2024/01/06 00:44:36;;;;;;;18.15;8.55;;;;;;;5.26;99.62;98622.66;5116495;27;20031;-80
2024/01/06 00:47:01;;;;;;;44.70;14.48;;;;;;;5.80;99.86;98721.66;5109849;27;20035;-80
2024/01/06 00:49:26;;;;;;;23.63;11.82;;;;;;;5.33;99.82;98650.78;5120294;27;20024;-80
2024/01/06 00:51:52;;;;;;;16.02;7.82;;;;;;;5.52;100.00;98696.03;5105181;28;20039;-79
2024/01/06 00:54:17;;;;;;;14.82;7.72;;;;;;;5.40;100.00;98691.03;5125401;27;20019;-79
2024/01/06 00:56:43;;;;;;;18.33;8.52;;;;;;;5.33;100.00;98691.09;5117822;27;20114;-79
2024/01/06 00:59:08;;;;;;;13.38;7.75;;;;;;;5.12;100.00;98659.16;5133611;27;20043;-79
2024/01/06 01:01:34;;;;;;;19.83;9.43;;;;;;;5.45;100.00;98709.00;5106855;27;20035;-79
2024/01/06 01:03:59;;;;;;;20.73;9.10;;;;;;;5.44;100.00;98704.69;5123702;27;20026;-80
2024/01/06 01:06:25;;;;;;;17.08;9.65;;;;;;;5.53;100.00;98707.78;5116945;27;20168;-79
2024/01/06 01:08:50;;;;;;;18.60;9.82;;;;;;;5.63;100.00;98707.69;5127902;27;20023;-80
2024/01/06 01:11:16;;;;;;;21.42;8.30;;;;;;;5.65;100.00;98708.09;5123543;27;20167;-80
2024/01/06 01:13:41;;;;;;;18.38;8.15;;;;;;;5.55;100.00;98683.47;5111363;27;20126;-80
2024/01/06 01:16:07;;;;;;;19.33;8.13;;;;;;;5.68;99.74;98699.03;5112790;28;20024;-80
2024/01/06 01:18:32;;;;;;;19.42;8.25;;;;;;;5.05;98.91;98598.94;5118782;27;20046;-80
2024/01/06 01:20:57;;;;;;;18.50;9.02;;;;;;;5.55;98.65;98686.22;5112847;27;20137;-79
2024/01/06 01:23:23;;;;;;;21.80;9.30;;;;;;;5.68;99.05;98687.31;5131357;27;20461;-80
2024/01/06 01:25:48;;;;;;;22.88;9.40;;;;;;;5.52;97.61;98674.13;5105314;27;20142;-80
2024/01/06 01:28:14;;;;;;;18.65;9.25;;;;;;;5.72;97.47;98668.88;5121212;27;20023;-80
2024/01/06 01:30:39;;;;;;;16.83;8.48;;;;;;;5.36;96.31;98610.84;5122042;27;20119;-81
2024/01/06 01:33:05;;;;;;;14.30;7.72;;;;;;;5.65;96.40;98677.94;5107440;27;20027;-79
2024/01/06 01:35:30;;;;;;;20.70;9.60;;;;;;;5.73;97.16;98697.81;5131636;27;20035;-80
2024/01/06 01:37:56;;;;;;;33.22;11.05;;;;;;;5.53;97.33;98672.16;5120043;27;20023;-81
2024/01/06 01:40:21;;;;;;;26.70;12.43;;;;;;;5.80;97.34;98689.53;5120939;27;20035;-81
2024/01/06 01:42:46;;;;;;;20.30;9.63;;;;;;;5.72;97.27;98694.34;5110100;28;20037;-79
2024/01/06 01:45:12;;;;;;;28.95;10.73;;;;;;;5.31;97.55;98638.66;5117852;27;20027;-82
2024/01/06 01:47:39;;;;;;;26.35;10.32;;;;;;;5.42;98.16;98647.59;5124919;27;20499;-79
2024/01/06 01:50:05;;;;;;;18.63;9.10;;;;;;;5.62;97.83;98672.47;5131525;27;20031;-79
2024/01/06 01:52:31;;;;;;;24.23;8.38;;;;;;;5.50;98.28;98653.78;5129666;27;20047;-80
2024/01/06 01:54:57;;;;;;;18.10;7.60;;;;;;;5.70;97.47;98682.19;5110852;28;20019;-80
2024/01/06 01:57:24;;;;;;;25.67;9.70;;;;;;;5.77;97.83;98693.13;5122107;28;20049;-80
2024/01/06 01:59:49;;;;;;;19.83;8.40;;;;;;;5.69;97.57;98699.81;5110364;28;20022;-81
2024/01/06 02:02:16;;;;;;;23.38;8.52;;;;;;;5.59;97.56;98679.56;5124340;28;20023;-81
2024/01/06 02:04:42;;;;;;;16.07;7.87;;;;;;;5.41;97.84;98667.94;5119860;27;20023;-80
2024/01/06 02:07:07;;;;;;;19.55;8.48;;;;;;;5.29;99.00;98650.03;5126963;27;20085;-80
2024/01/06 02:09:33;;;;;;;17.73;8.57;;;;;;;5.45;98.39;98657.72;5126433;27;20023;-81
2024/01/06 02:11:58;;;;;;;12.57;7.00;;;;;;;5.55;97.79;98673.31;5116330;27;20768;-79
2024/01/06 02:14:24;;;;;;;11.88;6.60;;;;;;;5.04;97.32;98613.03;5132473;27;20501;-80
2024/01/06 02:16:49;;;;;;;14.45;7.43;;;;;;;5.26;96.99;98669.22;5107767;27;20032;-80
2024/01/06 02:19:16;;;;;;;13.45;7.32;;;;;;;4.92;98.20;98630.72;5107474;28;20027;-80
2024/01/06 02:21:43;;;;;;;24.80;9.68;;;;;;;4.76;99.22;98605.78;5130536;27;20019;-81
2024/01/06 02:24:09;;;;;;;29.33;12.27;;;;;;;5.01;99.61;98663.09;5120558;27;20127;-79
2024/01/06 02:26:34;;;;;;;26.83;10.00;;;;;;;4.64;100.00;98600.78;5126488;28;20027;-80
2024/01/06 02:29:01;;;;;;;27.15;11.05;;;;;;;4.66;100.00;98606.59;5123832;27;20424;-80
2024/01/06 02:31:27;;;;;;;16.30;7.90;;;;;;;4.42;100.00;98575.47;5109622;28;20031;-79
2024/01/06 02:33:52;;;;;;;24.05;11.25;;;;;;;4.87;100.00;98659.28;5130894;27;20019;-81
2024/01/06 02:36:18;;;;;;;30.60;12.68;;;;;;;4.75;100.00;98640.59;5131689;27;20022;-79
2024/01/06 02:38:43;;;;;;;19.58;8.93;;;;;;;4.79;100.00;98626.88;5121764;27;20023;-81
2024/01/06 02:41:08;;;;;;;16.40;6.97;;;;;;;5.01;100.00;98644.72;5125753;27;20106;-80
2024/01/06 02:43:34;;;;;;;15.15;7.03;;;;;;;4.69;100.00;98583.94;5124142;27;20468;-81
2024/01/06 02:45:59;;;;;;;16.17;7.00;;;;;;;5.01;100.00;98644.72;5134527;27;20019;-81
2024/01/06 02:48:25;;;;;;;13.90;6.43;;;;;;;4.47;100.00;98547.69;5126509;27;20027;-79
2024/01/06 02:50:50;;;;;;;17.00;6.55;;;;;;;4.99;100.00;98616.19;5115843;27;20051;-80
2024/01/06 02:53:16;;;;;;;21.40;8.35;;;;;;;5.08;100.00;98627.47;5115271;27;20496;-80
2024/01/06 02:55:41;;;;;;;13.30;6.63;;;;;;;5.06;100.00;98607.94;5133685;27;20053;-79
2024/01/06 02:58:06;;;;;;;11.82;5.95;;;;;;;5.12;100.00;98618.06;5113988;27;20042;-79
2024/01/06 03:00:32;;;;;;;11.00;5.38;;;;;;;5.09;100.00;98610.66;5135467;27;20034;-79
2024/01/06 03:02:57;;;;;;;13.25;6.82;;;;;;;5.13;100.00;98627.03;5134113;27;20015;-80
2024/01/06 03:05:23;;;;;;;12.98;6.00;;;;;;;4.86;100.00;98600.25;5119557;27;20477;-79
2024/01/06 03:07:48;;;;;;;39.22;12.90;;;;;;;5.03;100.00;98614.22;5124282;27;20030;-80
2024/01/06 03:10:14;;;;;;;27.50;10.82;;;;;;;5.04;100.00;98611.06;5114945;27;20032;-80
2024/01/06 03:12:39;;;;;;;12.50;5.97;;;;;;;4.88;100.00;98575.97;5126111;27;20024;-80
2024/01/06 03:15:05;;;;;;;12.88;5.50;;;;;;;5.15;100.00;98614.50;5129098;27;20038;-80
2024/01/06 03:17:30;;;;;;;33.30;10.73;;;;;;;4.88;100.00;98562.28;5135247;27;20567;-79
2024/01/06 03:19:56;;;;;;;52.63;17.45;;;;;;;5.00;100.00;98579.44;5117577;27;20091;-80
2024/01/06 03:22:22;;;;;;;29.35;11.07;;;;;;;5.33;100.00;98642.56;5126156;27;20059;-79
2024/01/06 03:24:47;;;;;;;28.23;9.77;;;;;;;5.27;100.00;98637.91;5100333;27;20051;-79
2024/01/06 03:27:13;;;;;;;25.60;9.77;;;;;;;5.03;100.00;98595.81;5126514;27;20110;-79
2024/01/06 03:29:38;;;;;;;17.05;7.40;;;;;;;4.95;100.00;98577.09;5123241;27;20028;-81
2024/01/06 03:32:04;;;;;;;15.35;6.22;;;;;;;5.05;100.00;98588.00;5119105;27;20579;-79
2024/01/06 03:34:29;;;;;;;14.95;7.35;;;;;;;4.84;100.00;98536.13;5119315;27;20038;-79
2024/01/06 03:36:54;;;;;;;15.73;7.13;;;;;;;5.51;100.00;98628.72;5101129;27;20043;-80
2024/01/06 03:39:20;;;;;;;32.45;10.57;;;;;;;5.37;99.90;98600.66;5127548;27;20080;-80
2024/01/06 03:41:45;;;;;;;33.05;10.43;;;;;;;5.47;99.14;98600.56;5126192;27;20115;-80
2024/01/06 03:44:11;;;;;;;31.08;11.50;;;;;;;5.10;99.49;98523.81;5121571;27;20027;-81
2024/01/06 03:46:37;;;;;;;17.92;7.65;;;;;;;5.20;98.69;98542.09;5126050;27;20027;-80
2024/01/06 03:49:03;;;;;;;27.85;10.52;;;;;;;5.52;98.57;98594.66;5126655;27;20110;-80
2024/01/06 03:51:29;;;;;;;10.40;5.32;;;;;;;5.36;99.09;98572.50;5098733;28;20105;-80
2024/01/06 03:53:54;;;;;;;30.45;11.18;;;;;;;5.39;99.39;98581.84;5126879;27;20030;-81
2024/01/06 03:56:19;;;;;;;16.13;7.57;;;;;;;5.42;100.00;98570.88;5119276;27;20092;-80
2024/01/06 03:58:45;;;;;;;15.82;5.28;;;;;;;5.36;99.69;98585.41;5119887;27;20081;-81
2024/01/06 04:01:10;;;;;;;13.77;5.38;;;;;;;5.46;100.00;98592.75;5119598;27;20397;-80
2024/01/06 04:03:35;;;;;;;11.07;5.32;;;;;;;4.98;100.00;98525.06;5133422;27;20031;-80
2024/01/06 04:06:01;;;;;;;12.25;5.57;;;;;;;5.20;100.00;98537.41;5117198;27;20031;-80
2024/01/06 04:08:27;;;;;;;13.35;6.68;;;;;;;5.41;99.58;98588.50;5120234;27;20114;-80
2024/01/06 04:10:52;;;;;;;15.95;7.15;;;;;;;5.36;100.00;98568.97;5134163;27;20454;-81
2024/01/06 04:13:17;;;;;;;9.40;4.68;;;;;;;5.23;100.00;98566.72;5116647;27;20085;-79
2024/01/06 04:15:43;;;;;;;9.93;4.93;;;;;;;5.28;100.00;98593.69;5121675;27;20023;-80
2024/01/06 04:18:09;;;;;;;10.35;4.90;;;;;;;5.37;100.00;98598.69;5135013;27;20051;-80
2024/01/06 04:20:34;;;;;;;10.98;5.45;;;;;;;5.21;98.76;98598.44;5115395;27;20085;-80
2024/01/06 04:23:00;;;;;;;10.98;5.72;;;;;;;5.09;99.58;98566.06;5125469;27;20027;-80
2024/01/06 04:25:25;;;;;;;13.30;6.88;;;;;;;4.75;99.11;98533.84;5103723;27;20412;-80
2024/01/06 04:27:51;;;;;;;19.95;8.32;;;;;;;5.20;99.19;98610.56;5117950;27;20122;-80
2024/01/06 04:30:17;;;;;;;15.20;7.13;;;;;;;4.94;100.00;98561.88;5118760;27;20130;-80
2024/01/06 04:32:43;;;;;;;16.23;6.68;;;;;;;5.26;100.00;98617.94;5132987;27;20035;-80
2024/01/06 04:35:08;;;;;;;24.13;7.75;;;;;;;5.13;100.00;98607.88;5127355;27;20038;-80
2024/01/06 04:37:34;;;;;;;32.33;10.68;;;;;;;5.26;100.00;98622.66;5120823;27;20431;-79
2024/01/06 04:39:59;;;;;;;36.90;10.90;;;;;;;4.62;100.00;98551.91;5133458;27;20396;-80
2024/01/06 04:42:25;;;;;;;34.47;8.52;;;;;;;5.04;100.00;98621.25;5127691;27;20038;-80
2024/01/06 04:44:51;;;;;;;29.73;7.82;;;;;;;5.07;100.00;98612.22;5117366;27;20023;-80
2024/01/06 04:47:17;;;;;;;20.35;8.85;;;;;;;5.06;100.00;98630.63;5132367;27;20476;-80
2024/01/06 04:49:43;;;;;;;18.70;6.88;;;;;;;4.86;100.00;98604.94;5122503;27;20026;-80
2024/01/06 04:52:09;;;;;;;15.48;6.35;;;;;;;4.91;100.00;98618.97;5118732;27;20067;-80
2024/01/06 04:54:34;;;;;;;14.85;6.22;;;;;;;4.94;100.00;98633.84;5111430;28;20015;-80
2024/01/06 04:56:59;;;;;;;15.30;5.57;;;;;;;4.95;100.00;98635.38;5124341;27;20134;-80
2024/01/06 04:59:25;;;;;;;14.18;5.40;;;;;;;4.75;100.00;98601.50;5099377;27;20055;-79
2024/01/06 05:01:51;;;;;;;13.25;6.07;;;;;;;4.73;100.00;98574.50;5124323;27;20484;-80
2024/01/06 05:04:17;;;;;;;16.70;10.43;;;;;;;4.88;100.00;98616.28;5112673;27;20035;-80
2024/01/06 05:06:43;;;;;;;10.27;5.80;;;;;;;4.74;100.00;98617.13;5119616;27;20023;-79
2024/01/06 05:09:09;;;;;;;11.85;4.95;;;;;;;4.64;100.00;98593.31;5125254;27;20039;-81
2024/01/06 05:11:34;;;;;;;11.30;5.07;;;;;;;4.90;100.00;98611.94;5111266;28;20023;-80
2024/01/06 05:14:00;;;;;;;11.90;5.22;;;;;;;5.01;100.00;98617.34;5124768;27;20019;-79
2024/01/06 05:16:25;;;;;;;9.85;5.38;;;;;;;4.94;100.00;98595.50;5107066;28;20038;-79
2024/01/06 05:18:50;;;;;;;12.15;5.68;;;;;;;5.02;100.00;98605.22;5130435;27;20106;-80
2024/01/06 05:21:16;;;;;;;10.60;6.07;;;;;;;4.88;100.00;98565.00;5132091;27;20019;-81
2024/01/06 05:23:42;;;;;;;14.27;6.55;;;;;;;4.84;100.00;98563.50;5125001;27;20088;-79
2024/01/06 05:26:07;;;;;;;12.95;5.53;;;;;;;5.12;100.00;98603.59;5113605;27;20024;-79
2024/01/06 05:28:32;;;;;;;16.38;7.43;;;;;;;5.04;100.00;98600.13;5117889;27;20102;-81
2024/01/06 05:30:58;;;;;;;79.18;37.90;;;;;;;4.87;100.00;98596.34;5119462;27;20131;-80
2024/01/06 05:33:23;;;;;;;321.73;136.02;;;;;;;4.98;100.00;98620.91;5122782;27;20027;-80
2024/01/06 05:35:48;;;;;;;259.17;112.82;;;;;;;4.74;100.00;98575.28;5128501;27;20015;-81
2024/01/06 05:38:14;;;;;;;26.52;15.25;;;;;;;4.68;100.00;98568.69;5132519;27;20023;-80
2024/01/06 05:40:39;;;;;;;14.18;7.55;;;;;;;5.04;100.00;98604.81;5132641;27;20027;-79
2024/01/06 05:43:05;;;;;;;17.90;7.72;;;;;;;5.03;100.00;98597.78;5115429;27;20038;-80
2024/01/06 05:45:30;;;;;;;19.77;9.48;;;;;;;5.06;100.00;98622.41;5119126;27;20571;-79
2024/01/06 05:47:56;;;;;;;13.13;7.18;;;;;;;5.07;100.00;98621.22;5131418;27;20038;-81
2024/01/06 05:50:21;;;;;;;153.20;52.00;;;;;;;5.20;100.00;98627.78;5130758;27;20831;-80
2024/01/06 05:52:50;;;;;;;23.48;11.60;;;;;;;4.99;100.00;98586.09;5119459;27;20035;-80
2024/01/06 05:55:16;;;;;;;14.02;6.82;;;;;;;5.26;100.00;98623.44;5118402;27;20059;-80
2024/01/06 05:57:41;;;;;;;25.90;12.18;;;;;;;5.19;100.00;98606.25;5132347;27;20455;-80
2024/01/06 06:00:11;;;;;;;32.28;16.63;;;;;;;5.20;100.00;98594.13;5125430;27;20023;-80
2024/01/06 06:02:36;;;;;;;24.85;10.23;;;;;;;5.06;100.00;98573.13;5131116;27;20042;-79
2024/01/06 06:05:02;;;;;;;65.97;28.52;;;;;;;4.85;100.00;98559.56;5119768;28;20508;-80
2024/01/06 06:07:27;;;;;;;108.38;52.33;;;;;;;5.07;100.00;98601.25;5116367;28;20046;-81
2024/01/06 06:09:53;;;;;;;113.70;60.47;;;;;;;5.04;100.00;98585.66;5131011;27;20115;-80
2024/01/06 06:12:19;;;;;;;89.88;47.97;;;;;;;5.01;100.00;98589.97;5128249;27;20027;-80
2024/01/06 06:14:44;;;;;;;249.68;130.57;;;;;;;4.86;100.00;98552.94;5124461;27;20046;-80
2024/01/06 06:17:10;;;;;;;67.20;36.30;;;;;;;5.14;100.00;98584.78;5131207;27;20533;-80
2024/01/06 06:19:35;;;;;;;34.50;18.70;;;;;;;5.22;100.00;98572.59;5126778;27;20030;-80
2024/01/06 06:22:00;;;;;;;24.27;11.10;;;;;;;5.36;100.00;98593.63;5106552;27;20036;-80
2024/01/06 06:24:26;;;;;;;16.85;7.82;;;;;;;5.30;100.00;98571.38;5108065;28;20442;-79
2024/01/06 06:26:51;;;;;;;17.27;8.50;;;;;;;5.21;100.00;98566.34;5118693;27;20102;-79
2024/01/06 06:29:17;;;;;;;17.85;11.25;;;;;;;5.35;100.00;98581.91;5135041;27;20038;-80
2024/01/06 06:31:46;;;;;;;34.50;12.05;;;;;;;5.15;100.00;98543.31;5134967;27;20034;-82
2024/01/06 06:34:12;;;;;;;28.80;12.50;;;;;;;5.24;100.00;98576.47;5128200;27;20062;-82
2024/01/06 06:36:37;;;;;;;52.85;17.02;;;;;;;4.99;100.00;98536.81;5128069;27;20031;-80
2024/01/06 06:39:04;;;;;;;33.13;12.20;;;;;;;5.24;100.00;98575.72;5125538;27;20091;-79
2024/01/06 06:41:30;;;;;;;19.70;8.45;;;;;;;5.13;100.00;98569.53;5115945;27;20526;-80
2024/01/06 06:43:57;;;;;;;11.55;8.05;;;;;;;5.38;100.00;98602.97;5125182;27;20118;-79
2024/01/06 06:46:23;;;;;;;10.85;6.03;;;;;;;5.01;100.00;98545.38;5134013;27;20087;-80
2024/01/06 06:48:48;;;;;;;10.90;6.05;;;;;;;5.11;100.00;98578.16;5116557;27;20028;-80
2024/01/06 06:51:14;;;;;;;8.55;4.47;;;;;;;4.95;100.00;98566.16;5111289;28;20044;-80
2024/01/06 06:53:39;;;;;;;10.55;4.72;;;;;;;4.97;100.00;98586.47;5109985;28;20122;-80
2024/01/06 06:56:05;;;;;;;9.68;4.90;;;;;;;4.79;100.00;98572.91;5132192;27;20041;-79
2024/01/06 06:58:30;;;;;;;10.70;4.60;;;;;;;4.90;100.00;98586.53;5116575;27;20023;-82
2024/01/06 07:00:56;;;;;;;9.30;4.63;;;;;;;4.79;100.00;98583.84;5129809;27;20098;-81
2024/01/06 07:03:21;;;;;;;11.63;4.88;;;;;;;4.96;100.00;98593.13;5122532;27;20028;-79
2024/01/06 07:05:46;;;;;;;9.07;4.50;;;;;;;4.83;100.00;98559.19;5113024;28;20480;-80
2024/01/06 07:08:14;;;;;;;11.70;5.63;;;;;;;4.75;100.00;98539.31;5123524;27;20026;-81
2024/01/06 07:10:40;;;;;;;;;;;;;;;5.31;100.00;98609.31;5100816;27;20553;-83
2024/01/06 07:13:05;;;;;;;10.38;5.80;;;;;;;5.18;100.00;98589.06;5103878;28;19916;-81
2024/01/06 07:15:31;;;;;;;31.02;21.80;;;;;;;4.96;100.00;98549.31;5115012;27;20547;-79
2024/01/06 07:17:56;;;;;;;16.08;8.15;;;;;;;5.33;100.00;98585.03;5121076;27;20031;-81
2024/01/06 07:20:22;;;;;;;12.93;6.30;;;;;;;5.56;100.00;98603.63;5131801;27;20025;-80
2024/01/06 07:22:47;;;;;;;12.68;6.22;;;;;;;5.47;100.00;98573.19;5134291;27;20026;-80
2024/01/06 07:25:12;;;;;;;26.35;11.98;;;;;;;5.35;100.00;98557.25;5111190;27;20114;-81
2024/01/06 07:27:38;;;;;;;17.58;9.88;;;;;;;5.57;100.00;98564.06;5109884;27;20032;-79
2024/01/06 07:30:04;;;;;;;13.80;7.13;;;;;;;5.58;100.00;98551.16;5108931;27;20407;-80
2024/01/06 07:32:30;;;;;;;15.65;5.45;;;;;;;5.83;100.00;98562.63;5112591;28;20027;-79
2024/01/06 07:34:56;;;;;;;21.88;11.82;;;;;;;5.56;100.00;98543.31;5122573;27;20462;-81
2024/01/06 07:37:21;;;;;;;31.38;16.08;;;;;;;5.44;100.00;98504.69;5137031;27;20053;-81
2024/01/06 07:39:47;;;;;;;22.33;12.73;;;;;;;5.84;100.00;98553.22;5135717;27;20118;-79
2024/01/06 07:42:12;;;;;;;34.75;16.23;;;;;;;5.78;100.00;98543.91;5133096;27;20053;-79
2024/01/06 07:44:37;;;;;;;33.83;18.02;;;;;;;5.80;100.00;98533.28;5120091;27;20412;-80
2024/01/06 07:47:05;;;;;;;23.10;13.93;;;;;;;5.82;100.00;98530.94;5133756;27;20031;-79
2024/01/06 07:49:30;;;;;;;33.47;18.27;;;;;;;6.03;100.00;98558.13;5133375;27;20034;-80
2024/01/06 07:51:56;;;;;;;36.65;22.02;;;;;;;6.22;100.00;98580.63;5122373;27;20035;-81
2024/01/06 07:54:21;;;;;;;41.38;19.25;;;;;;;6.36;100.00;98570.28;5087175;27;20122;-81
2024/01/06 07:56:47;;;;;;;119.25;50.13;;;;;;;6.31;100.00;98529.59;5133874;27;20024;-79
2024/01/06 07:59:12;;;;;;;168.63;66.10;;;;;;;6.68;100.00;98571.81;5133974;27;20015;-81
2024/01/06 08:01:38;;;;;;;80.93;32.17;;;;;;;6.81;100.00;98570.06;5122292;27;20026;-80
2024/01/06 08:04:04;;;;;;;161.55;58.65;;;;;;;6.93;98.23;98544.78;5131357;27;20054;-82
2024/01/06 08:06:29;;;;;;;21.17;9.77;;;;;;;7.26;96.40;98554.84;5133645;27;20120;-79
2024/01/06 08:08:54;;;;;;;10.32;4.85;;;;;;;7.47;98.63;98552.94;5128955;27;20035;-80
2024/01/06 08:11:20;;;;;;;11.05;4.72;;;;;;;7.58;99.32;98561.78;5124538;27;20027;-79
2024/01/06 08:13:46;;;;;;;9.40;4.70;;;;;;;7.54;97.73;98522.56;5133462;27;20023;-79
2024/01/06 08:16:11;;;;;;;10.35;4.70;;;;;;;8.07;95.79;98582.09;5133763;27;20023;-80
2024/01/06 08:18:37;;;;;;;13.18;5.03;;;;;;;8.07;94.40;98533.34;5133225;27;20035;-80
2024/01/06 08:21:03;;;;;;;10.73;4.88;;;;;;;8.49;92.97;98566.72;5133283;27;20019;-81
2024/01/06 08:23:28;;;;;;;16.85;4.55;;;;;;;8.58;92.16;98555.91;5132559;27;20070;-81
2024/01/06 08:25:54;;;;;;;9.82;4.75;;;;;;;8.89;91.38;98579.22;5134169;27;20377;-81
2024/01/06 08:28:19;;;;;;;7.28;3.70;;;;;;;8.92;90.00;98558.31;5134712;27;20061;-80
2024/01/06 08:30:45;;;;;;;11.43;4.20;;;;;;;9.24;87.79;98568.56;5133265;27;20030;-81
2024/01/06 08:33:11;;;;;;;12.45;4.07;;;;;;;9.31;85.96;98518.75;5119817;27;20045;-80
2024/01/06 08:35:40;;;;;;;;;;;;;;;9.86;81.16;98580.41;5123698;27;20031;-81
2024/01/06 08:38:08;;;;;;;;;;;;;;;9.96;80.02;98590.38;5134632;27;19919;-80
2024/01/06 08:40:34;;;;;;;;;;;;;;;10.17;77.28;98595.38;5134791;27;20006;-79
2024/01/06 08:42:59;;;;;;;;;;;;;;;10.41;77.41;98593.13;5134019;27;20009;-81
2024/01/06 08:45:24;;;;;;;;;;;;;;;10.64;72.90;98583.78;5134376;27;19911;-80
2024/01/06 08:47:50;;;;;;;;;;;;;;;10.77;72.90;98582.59;5133603;27;19911;-81
2024/01/06 08:50:15;;;;;;;;;;;;;;;10.89;69.52;98583.81;5124458;27;20015;-80
2024/01/06 08:52:40;;;;;;;;;;;;;;;10.66;70.69;98590.41;5116612;27;19919;-81
2024/01/06 08:55:06;;;;;;;;;;;;;;;10.82;70.83;98579.28;5125250;27;19918;-80
2024/01/06 08:57:31;;;;;;;;;;;;;;;10.74;69.29;98579.91;5131129;27;19911;-80
2024/01/06 08:59:57;;;;;;;;;;;;;;;10.92;69.77;98571.84;5135540;27;19954;-80
2024/01/06 09:02:22;;;;;;;;;;;;;;;10.74;69.28;98560.56;5133467;27;19993;-79
2024/01/06 09:04:47;;;;;;;;;;;;;;;10.92;67.84;98561.56;5133564;27;19908;-80
2024/01/06 09:07:13;;;;;;;;;;;;;;;10.68;67.87;98570.63;5134130;27;19907;-80
2024/01/06 09:09:38;;;;;;;;;;;;;;;10.76;68.94;98560.91;5124107;27;19912;-80
2024/01/06 09:12:03;;;;;;;;;;;;;;;11.04;66.95;98557.25;5129308;27;20312;-81
2024/01/06 09:14:30;;;;;;;;;;;;;;;11.19;66.70;98547.31;5124633;27;20389;-81
2024/01/06 09:16:55;;;;;;;;;;;;;;;11.15;64.23;98546.63;5128571;27;20304;-81
2024/01/06 09:19:21;;;;;;;;;;;;;;;10.99;64.87;98549.53;5134167;27;19918;-80
2024/01/06 09:21:47;;;;;;;;;;;;;;;11.20;64.93;98548.88;5117013;27;19912;-80
2024/01/06 09:24:12;;;;;;;13.30;5.82;;;;;;;10.91;64.97;98513.03;5120068;27;20385;-80
2024/01/06 09:26:38;;;;;;;10.80;5.28;;;;;;;10.82;65.49;98512.94;5130092;27;20023;-80
2024/01/06 09:29:04;;;;;;;10.50;5.72;;;;;;;10.77;66.13;98498.91;5112889;28;20068;-81
2024/01/06 09:31:30;;;;;;;13.43;4.95;;;;;;;10.54;66.89;98480.66;5127299;27;20517;-81
2024/01/06 09:33:55;;;;;;;11.68;5.40;;;;;;;10.58;67.13;98464.75;5123386;27;20027;-80
2024/01/06 09:36:20;;;;;;;;;;;;;;;11.10;66.19;98516.00;5105645;27;20122;-79
2024/01/06 09:38:46;;;;;;;;;;;;;;;11.08;66.59;98510.94;5131577;27;19998;-81
2024/01/06 09:41:11;;;;;;;;;;;;;;;11.34;64.43;98512.44;5112703;27;19919;-80
2024/01/06 09:43:37;;;;;;;;;;;;;;;11.20;64.48;98510.16;5125044;27;19918;-81
2024/01/06 09:46:09;;;;;;;;;;;;;;;11.00;65.53;98513.16;5111665;28;19923;-81
2024/01/06 09:48:38;;;;;;;;;;;;;;;11.12;64.94;98503.28;5131552;27;19918;-80
2024/01/06 09:51:06;;;;;;;10.68;5.50;;;;;;;10.95;64.74;98460.41;5129533;27;20473;-80
2024/01/06 09:53:38;;;;;;;10.40;6.28;;;;;;;11.43;63.58;98501.47;5131375;27;20026;-79
2024/01/06 09:56:05;;;;;;;14.77;5.68;;;;;;;11.33;63.31;98474.91;5113025;28;20884;-80
2024/01/06 09:58:34;;;;;;;;;;;;;;;11.08;65.78;98488.81;5121407;28;20458;-82
2024/01/06 10:01:00;;;;;;;7.63;5.28;;;;;;;11.09;64.88;98453.66;5125300;27;20368;-80
2024/01/06 10:03:26;;;;;;;14.75;6.10;;;;;;;11.17;63.57;98477.06;5121565;28;20027;-80
2024/01/06 10:05:52;;;;;;;29.52;12.95;;;;;;;11.26;63.93;98464.13;5126706;27;20046;-81
2024/01/06 10:08:18;;;;;;;10.48;5.90;;;;;;;11.59;63.37;98478.38;5121314;27;20472;-81
2024/01/06 10:10:45;;;;;;;12.68;5.82;;;;;;;11.58;63.32;98449.16;5131415;27;20033;-82
2024/01/06 10:13:10;;;;;;;13.35;5.72;;;;;;;11.47;63.28;98450.75;5120837;27;20110;-80
2024/01/06 10:15:36;;;;;;;9.52;5.72;;;;;;;11.59;63.12;98439.63;5129304;28;20102;-80
2024/01/06 10:18:03;;;;;;;12.98;6.05;;;;;;;11.16;63.35;98382.28;5131023;27;20027;-80
2024/01/06 10:20:31;;;;;;;11.02;7.50;;;;;;;11.80;62.86;98435.38;5130444;27;20559;-80
2024/01/06 10:23:05;;;;;;;20.05;10.75;;;;;;;11.68;63.62;98414.03;5131279;27;20058;-80
2024/01/06 10:25:30;;;;;;;8.63;5.25;;;;;;;11.49;62.68;98399.31;5117104;27;20027;-80
2024/01/06 10:27:56;;;;;;;8.63;5.07;;;;;;;11.23;63.39;98364.66;5119486;27;20076;-80
2024/01/06 10:30:21;;;;;;;34.50;17.50;;;;;;;11.32;63.55;98362.75;5117685;28;20084;-78
2024/01/06 10:32:47;;;;;;;17.65;9.75;;;;;;;11.65;64.60;98390.81;5130729;27;20287;-80
2024/01/06 10:35:12;;;;;;;10.45;5.82;;;;;;;11.64;64.13;98408.63;5131759;27;20109;-80
2024/01/06 10:37:38;;;;;;;12.55;6.35;;;;;;;11.57;63.63;98383.22;5132191;27;20027;-80
2024/01/06 10:40:13;;;;;;;12.05;6.50;;;;;;;11.35;63.13;98338.94;5112358;27;20106;-80
2024/01/06 10:42:41;;;;;;;9.73;5.35;;;;;;;11.65;63.96;98412.16;5112051;28;20080;-80
2024/01/06 10:45:09;;;;;;;8.88;4.75;;;;;;;11.77;63.86;98408.59;5130799;27;20118;-80
2024/01/06 10:47:35;;;;;;;10.32;5.47;;;;;;;11.53;62.89;98344.59;5129930;27;20869;-81
2024/01/06 10:50:01;;;;;;;10.27;5.60;;;;;;;11.77;62.87;98389.22;5118549;28;20125;-80
2024/01/06 10:52:28;;;;;;;10.65;5.85;;;;;;;11.73;62.84;98339.53;5117118;27;20126;-81
2024/01/06 10:54:57;;;;;;;11.38;6.82;;;;;;;11.84;62.61;98364.03;5130941;27;20035;-80
2024/01/06 10:57:23;;;;;;;11.38;5.63;;;;;;;11.93;63.79;98393.78;5131323;27;20019;-79
2024/01/06 10:59:50;;;;;;;12.77;7.40;;;;;;;11.80;63.07;98347.56;5132364;27;20022;-79
2024/01/06 11:02:16;;;;;;;11.60;6.23;;;;;;;12.48;62.98;98392.78;5134669;27;20023;-80
2024/01/06 11:04:48;;;;;;;11.88;5.22;;;;;;;11.71;61.80;98322.56;5136221;27;20080;-81
2024/01/06 11:07:17;;;;;;;7.85;4.80;;;;;;;11.36;63.04;98310.84;5134298;27;20118;-81
2024/01/06 11:09:58;;;;;;;11.70;6.45;;;;;;;11.86;63.01;98367.13;5123413;27;20114;-79
2024/01/06 11:12:26;;;;;;;9.68;5.20;;;;;;;12.21;63.09;98359.44;5132486;27;20023;-79
2024/01/06 11:14:52;;;;;;;13.48;5.25;;;;;;;12.38;63.18;98362.75;5133767;27;20054;-79
2024/01/06 11:17:57;;;;;;;15.65;6.18;;;;;;;12.44;61.37;98372.78;5127817;27;20051;-80
2024/01/06 11:20:24;;;;;;;8.63;3.88;;;;;;;12.35;61.07;98369.22;5131371;27;20033;-81
2024/01/06 11:22:51;;;;;;;7.15;4.82;;;;;;;12.43;61.89;98362.13;5132975;27;20019;-79
2024/01/06 11:25:21;;;;;;;10.75;6.00;;;;;;;12.12;62.82;98326.94;5115095;27;20084;-81